George Allen — WDF9749 — position and weather

sailwx.info

Track history (hours):
 
Tides and Currents Weather Stations Pressure Air Temp Water Temp Dewpoint Dewpoint Depression Visibility Wind Speed Wind Dir Waves Ship Positions

George Allen

Owner: Blessey Enterprises, Inc., Harahan, LA. More information available from US FCC via Universal Licensing System and Coast Guard Vessel Documentation Center.

Last reported at 2017-Aug-22 22:30 UTC. Time now 2017-Aug-22 22:42 UTC.
Position N 30°08' W 093°19'.

Length 23 m; draft 3.5 m.

Type: Towing. MMSI: 367508440.

Date/timePositionNaut miles runAvg speedWind from/ knotsBaromVisibWave heightAir tempDewpointWater temp
2017-Aug-22 22:30N 30°08' W 093°19'0 0.0
2017-Aug-22 22:00N 30°08' W 093°19'0 0.0
2017-Aug-22 21:30N 30°08' W 093°19'0 0.0
2017-Aug-22 21:00N 30°08' W 093°19'0 0.0
2017-Aug-22 20:30N 30°08' W 093°19'0 0.7
2017-Aug-22 20:00N 30°08' W 093°20'2 4.2
2017-Aug-22 19:30N 30°06' W 093°19'1 1.2
2017-Aug-22 19:00N 30°06' W 093°18'0 0.0
2017-Aug-22 18:30N 30°06' W 093°18'0 0.1
2017-Aug-22 18:00N 30°06' W 093°18'0 0.0
2017-Aug-22 17:30N 30°06' W 093°18'0 0.0
2017-Aug-22 17:00N 30°06' W 093°18'0 0.1
2017-Aug-22 16:30N 30°06' W 093°18'0 0.0
2017-Aug-22 16:00N 30°06' W 093°18'0 0.0
2017-Aug-22 15:30N 30°06' W 093°18'0 0.0
2017-Aug-22 15:00N 30°06' W 093°18'0 0.0
2017-Aug-22 14:30N 30°06' W 093°18'0 0.0
2017-Aug-22 14:00N 30°06' W 093°18'0 0.0
2017-Aug-22 13:30N 30°06' W 093°18'0 0.0
2017-Aug-22 13:00N 30°06' W 093°18'0 0.0
2017-Aug-22 12:30N 30°06' W 093°18'0 0.0
2017-Aug-22 12:00N 30°06' W 093°18'1 2.7
2017-Aug-22 11:30N 30°05' W 093°20'2 4.3
2017-Aug-22 11:00N 30°04' W 093°21'1 2.0
2017-Aug-22 10:30N 30°04' W 093°22'0 0.1
2017-Aug-22 10:00N 30°04' W 093°22'0 0.0
2017-Aug-22 09:30N 30°04' W 093°22'0 0.0
2017-Aug-22 09:00N 30°04' W 093°22'0 0.0
2017-Aug-22 08:30N 30°04' W 093°22'0 0.0
2017-Aug-22 08:00N 30°04' W 093°22'0 0.0
2017-Aug-22 07:30N 30°04' W 093°22'0 0.0
2017-Aug-22 07:00N 30°04' W 093°22'0 0.0
2017-Aug-22 06:30N 30°04' W 093°22'0 0.0
2017-Aug-22 06:00N 30°04' W 093°22'0 0.0
2017-Aug-22 05:30N 30°04' W 093°22'0 0.0
2017-Aug-22 05:00N 30°04' W 093°22'0 0.0
2017-Aug-22 04:30N 30°04' W 093°22'0 0.0
2017-Aug-22 04:00N 30°04' W 093°22'0 0.0
2017-Aug-22 03:30N 30°04' W 093°22'0 0.0
2017-Aug-22 03:00N 30°04' W 093°22'0 0.0
2017-Aug-22 02:30N 30°04' W 093°22'0 0.0
2017-Aug-22 02:00N 30°04' W 093°22'1 2.6
2017-Aug-22 01:30N 30°04' W 093°24'3 6.0
2017-Aug-22 01:00N 30°04' W 093°27'3 5.8
2017-Aug-22 00:30N 30°04' W 093°31'3 5.7
2017-Aug-22 00:00N 30°04' W 093°34'3 6.2
2017-Aug-21 23:27N 30°04' W 093°38'5 0.2
2017-Aug-20 21:55N 30°03' W 093°44'3 5.5
2017-Aug-20 21:27N 30°04' W 093°41'3 5.7
2017-Aug-20 21:00N 30°04' W 093°38'3 6.9
2017-Aug-20 20:30N 30°04' W 093°34'3 6.9
2017-Aug-20 20:01N 30°04' W 093°30'4 7.1
2017-Aug-20 19:31N 30°04' W 093°26'3 6.9
2017-Aug-20 19:01N 30°04' W 093°22'3 5.7
2017-Aug-20 18:30N 30°05' W 093°20'2 4.4
2017-Aug-20 18:01N 30°05' W 093°17'1 1.5
2017-Aug-20 17:31N 30°04' W 093°16'0 0.1
2017-Aug-20 17:00N 30°04' W 093°16'2 3.1
2017-Aug-20 16:31N 30°03' W 093°16'3 6.0
2017-Aug-20 16:00N 30°01' W 093°14'3 6.4
2017-Aug-20 15:31N 29°58' W 093°11'3 6.3
2017-Aug-20 15:01N 29°56' W 093°09'38 6.0
2017-Aug-20 08:37N 29°53' W 092°25'4 5.4
2017-Aug-20 07:56N 29°51' W 092°21'2 4.4
2017-Aug-20 07:30N 29°50' W 092°19'2 4.3
2017-Aug-20 07:01N 29°49' W 092°17'3 5.7
2017-Aug-20 06:30N 29°48' W 092°14'2 4.6
2017-Aug-20 06:00N 29°47' W 092°12'1 2.0
2017-Aug-20 05:30N 29°47' W 092°11'2 3.9
2017-Aug-20 05:00N 29°47' W 092°09'3 6.1
2017-Aug-20 04:30N 29°48' W 092°05'64 5.8
2017-Aug-19 17:25N 29°33' W 090°54'3 6.6
2017-Aug-19 16:58N 29°32' W 090°50'3 6.7
2017-Aug-19 16:30N 29°32' W 090°47'2 3.4
2017-Aug-19 16:00N 29°33' W 090°45'2 3.4
2017-Aug-19 15:31N 29°34' W 090°43'2 4.0
2017-Aug-19 15:01N 29°36' W 090°43'3 3.1
2017-Aug-19 14:01N 29°36' W 090°39'3 5.2
2017-Aug-19 13:31N 29°35' W 090°36'3 5.2
2017-Aug-19 13:00N 29°34' W 090°34'  
2017-Aug-13 06:31N 30°03' W 090°39'0 0.0
2017-Aug-13 06:28N 30°03' W 090°39'0 0.0
2017-Aug-13 06:00N 30°03' W 090°39'0 0.0
2017-Aug-13 05:30N 30°03' W 090°39'0 0.0
2017-Aug-13 04:59N 30°03' W 090°39'0 0.0
2017-Aug-13 03:57N 30°03' W 090°39'0 0.0
2017-Aug-13 02:57N 30°03' W 090°39'0 0.0
2017-Aug-13 02:30N 30°03' W 090°39'0 0.0
2017-Aug-13 00:19N 30°03' W 090°39'  
Track history (hours):
 
Tides and Currents Weather Stations Pressure Air Temp Water Temp Dewpoint Dewpoint Depression Visibility Wind Speed Wind Dir Waves Ship Positions

George Allen

Owner: Blessey Enterprises, Inc., Harahan, LA. More information available from US FCC via Universal Licensing System and Coast Guard Vessel Documentation Center.

Last reported at 2017-Aug-22 22:30 UTC. Time now 2017-Aug-22 22:42 UTC.
Position N 30°08' W 093°19'.

Length 23 m; draft 3.5 m.

Type: Towing. MMSI: 367508440.

Date/timePositionNaut miles runAvg speedWind from/ knotsBaromVisibWave heightAir tempDewpointWater temp
2017-Aug-22 22:30N 30°08' W 093°19'0 0.0
2017-Aug-22 22:00N 30°08' W 093°19'0 0.0
2017-Aug-22 21:30N 30°08' W 093°19'0 0.0
2017-Aug-22 21:00N 30°08' W 093°19'0 0.0
2017-Aug-22 20:30N 30°08' W 093°19'0 0.7
2017-Aug-22 20:00N 30°08' W 093°20'2 4.2
2017-Aug-22 19:30N 30°06' W 093°19'1 1.2
2017-Aug-22 19:00N 30°06' W 093°18'0 0.0
2017-Aug-22 18:30N 30°06' W 093°18'0 0.1
2017-Aug-22 18:00N 30°06' W 093°18'0 0.0
2017-Aug-22 17:30N 30°06' W 093°18'0 0.0
2017-Aug-22 17:00N 30°06' W 093°18'0 0.1
2017-Aug-22 16:30N 30°06' W 093°18'0 0.0
2017-Aug-22 16:00N 30°06' W 093°18'0 0.0
2017-Aug-22 15:30N 30°06' W 093°18'0 0.0
2017-Aug-22 15:00N 30°06' W 093°18'0 0.0
2017-Aug-22 14:30N 30°06' W 093°18'0 0.0
2017-Aug-22 14:00N 30°06' W 093°18'0 0.0
2017-Aug-22 13:30N 30°06' W 093°18'0 0.0
2017-Aug-22 13:00N 30°06' W 093°18'0 0.0
2017-Aug-22 12:30N 30°06' W 093°18'0 0.0
2017-Aug-22 12:00N 30°06' W 093°18'1 2.7
2017-Aug-22 11:30N 30°05' W 093°20'2 4.3
2017-Aug-22 11:00N 30°04' W 093°21'1 2.0
2017-Aug-22 10:30N 30°04' W 093°22'0 0.1
2017-Aug-22 10:00N 30°04' W 093°22'0 0.0
2017-Aug-22 09:30N 30°04' W 093°22'0 0.0
2017-Aug-22 09:00N 30°04' W 093°22'0 0.0
2017-Aug-22 08:30N 30°04' W 093°22'0 0.0
2017-Aug-22 08:00N 30°04' W 093°22'0 0.0
2017-Aug-22 07:30N 30°04' W 093°22'0 0.0
2017-Aug-22 07:00N 30°04' W 093°22'0 0.0
2017-Aug-22 06:30N 30°04' W 093°22'0 0.0
2017-Aug-22 06:00N 30°04' W 093°22'0 0.0
2017-Aug-22 05:30N 30°04' W 093°22'0 0.0
2017-Aug-22 05:00N 30°04' W 093°22'0 0.0
2017-Aug-22 04:30N 30°04' W 093°22'0 0.0
2017-Aug-22 04:00N 30°04' W 093°22'0 0.0
2017-Aug-22 03:30N 30°04' W 093°22'0 0.0
2017-Aug-22 03:00N 30°04' W 093°22'0 0.0
2017-Aug-22 02:30N 30°04' W 093°22'0 0.0
2017-Aug-22 02:00N 30°04' W 093°22'1 2.6
2017-Aug-22 01:30N 30°04' W 093°24'3 6.0
2017-Aug-22 01:00N 30°04' W 093°27'3 5.8
2017-Aug-22 00:30N 30°04' W 093°31'3 5.7
2017-Aug-22 00:00N 30°04' W 093°34'3 6.2
2017-Aug-21 23:27N 30°04' W 093°38'5 0.2
2017-Aug-20 21:55N 30°03' W 093°44'3 5.5
2017-Aug-20 21:27N 30°04' W 093°41'3 5.7
2017-Aug-20 21:00N 30°04' W 093°38'3 6.9
2017-Aug-20 20:30N 30°04' W 093°34'3 6.9
2017-Aug-20 20:01N 30°04' W 093°30'4 7.1
2017-Aug-20 19:31N 30°04' W 093°26'3 6.9
2017-Aug-20 19:01N 30°04' W 093°22'3 5.7
2017-Aug-20 18:30N 30°05' W 093°20'2 4.4
2017-Aug-20 18:01N 30°05' W 093°17'1 1.5
2017-Aug-20 17:31N 30°04' W 093°16'0 0.1
2017-Aug-20 17:00N 30°04' W 093°16'2 3.1
2017-Aug-20 16:31N 30°03' W 093°16'3 6.0
2017-Aug-20 16:00N 30°01' W 093°14'3 6.4
2017-Aug-20 15:31N 29°58' W 093°11'3 6.3
2017-Aug-20 15:01N 29°56' W 093°09'38 6.0
2017-Aug-20 08:37N 29°53' W 092°25'4 5.4
2017-Aug-20 07:56N 29°51' W 092°21'2 4.4
2017-Aug-20 07:30N 29°50' W 092°19'2 4.3
2017-Aug-20 07:01N 29°49' W 092°17'3 5.7
2017-Aug-20 06:30N 29°48' W 092°14'2 4.6
2017-Aug-20 06:00N 29°47' W 092°12'1 2.0
2017-Aug-20 05:30N 29°47' W 092°11'2 3.9
2017-Aug-20 05:00N 29°47' W 092°09'3 6.1
2017-Aug-20 04:30N 29°48' W 092°05'64 5.8
2017-Aug-19 17:25N 29°33' W 090°54'3 6.6
2017-Aug-19 16:58N 29°32' W 090°50'3 6.7
2017-Aug-19 16:30N 29°32' W 090°47'2 3.4
2017-Aug-19 16:00N 29°33' W 090°45'2 3.4
2017-Aug-19 15:31N 29°34' W 090°43'2 4.0
2017-Aug-19 15:01N 29°36' W 090°43'3 3.1
2017-Aug-19 14:01N 29°36' W 090°39'3 5.2
2017-Aug-19 13:31N 29°35' W 090°36'3 5.2
2017-Aug-19 13:00N 29°34' W 090°34'  
2017-Aug-13 06:31N 30°03' W 090°39'0 0.0
2017-Aug-13 06:28N 30°03' W 090°39'0 0.0
2017-Aug-13 06:00N 30°03' W 090°39'0 0.0
2017-Aug-13 05:30N 30°03' W 090°39'0 0.0
2017-Aug-13 04:59N 30°03' W 090°39'0 0.0
2017-Aug-13 03:57N 30°03' W 090°39'0 0.0
2017-Aug-13 02:57N 30°03' W 090°39'0 0.0
2017-Aug-13 02:30N 30°03' W 090°39'0 0.0
2017-Aug-13 00:19N 30°03' W 090°39'  

Dump ship's entire track history